Time;durP1;ratioP1;P1;durP2;ratioP2;P2;SDS_P1;SDS_P2;PMS_P1;PMS_P2;Temp;Humidity;BMP_temperature;BMP_pressure;BME280_temperature;BME280_humidity;BME280_pressure;Samples;Min_cycle;Max_cycle;Signal;HPM_P1;HPM_P2
2023/04/24 00:02:01;;;;;;;7.28;4.78;;;;;;;10.35;100.00;-18306.66;4974239;28;20131;-81
2023/04/24 00:04:26;;;;;;;7.75;4.93;;;;;;;10.27;100.00;-18304.59;4974854;28;20047;-81
2023/04/24 00:06:56;;;;;;;7.25;5.32;;;;;;;10.26;100.00;-18304.16;4974828;28;20537;-82
2023/04/24 00:09:22;;;;;;;8.20;6.20;;;;;;;10.27;100.00;-18304.59;4976248;28;20042;-82
2023/04/24 00:11:47;;;;;;;6.85;5.30;;;;;;;10.37;100.00;-18307.19;4976249;28;20066;-81
2023/04/24 00:14:13;;;;;;;8.45;6.10;;;;;;;10.35;100.00;-18306.66;4975170;28;20046;-82
2023/04/24 00:16:38;;;;;;;9.85;6.35;;;;;;;10.33;100.00;-18306.09;4974860;28;20054;-82
2023/04/24 00:19:05;;;;;;;8.48;6.00;;;;;;;10.38;100.00;-18307.63;4989563;28;20608;-82
2023/04/24 00:21:32;;;;;;;7.72;5.43;;;;;;;10.36;100.00;-18306.94;4974017;28;20129;-81
2023/04/24 00:23:58;;;;;;;8.20;5.50;;;;;;;10.34;100.00;-18306.38;4974613;28;20086;-81
2023/04/24 00:26:23;;;;;;;8.20;5.82;;;;;;;10.24;100.00;-18303.75;4975758;28;20462;-81
2023/04/24 00:28:49;;;;;;;8.80;6.47;;;;;;;10.27;100.00;-18304.59;4972708;28;20051;-81
2023/04/24 00:31:14;;;;;;;10.93;6.53;;;;;;;10.25;100.00;-18303.91;4974806;28;20081;-81
2023/04/24 00:33:39;;;;;;;9.82;7.25;;;;;;;10.26;100.00;-18304.31;4974788;28;20073;-81
2023/04/24 00:36:05;;;;;;;11.07;6.45;;;;;;;10.29;100.00;-18305.13;4974495;28;20054;-81
2023/04/24 00:38:31;;;;;;;9.68;6.72;;;;;;;10.40;100.00;-18308.03;4973409;28;20034;-81
2023/04/24 00:40:56;;;;;;;8.98;6.60;;;;;;;10.39;100.00;-18307.88;4989301;28;20047;-82
2023/04/24 00:43:22;;;;;;;9.50;6.15;;;;;;;10.39;100.00;-18307.88;4976128;28;20041;-81
2023/04/24 00:45:47;;;;;;;10.38;6.90;;;;;;;10.37;100.00;-18307.19;4993752;28;20047;-81
2023/04/24 00:48:13;;;;;;;9.55;5.85;;;;;;;10.42;100.00;-18308.56;4993865;28;20045;-81
2023/04/24 00:50:39;;;;;;;7.63;5.78;;;;;;;10.33;100.00;-18306.09;4977194;28;20070;-81
2023/04/24 00:53:04;;;;;;;7.53;5.03;;;;;;;10.39;100.00;-18307.75;4979290;28;20041;-81
2023/04/24 00:55:31;;;;;;;7.85;4.88;;;;;;;10.22;100.00;-18303.22;4983364;28;20664;-82
2023/04/24 00:57:56;;;;;;;7.03;4.25;;;;;;;10.32;100.00;-18305.81;4979590;28;20050;-81
2023/04/24 01:00:22;;;;;;;7.22;5.10;;;;;;;10.30;100.00;-18305.41;4977581;28;20096;-81
2023/04/24 01:02:49;;;;;;;7.05;4.40;;;;;;;10.32;100.00;-18305.81;4978817;28;20055;-81
2023/04/24 01:05:15;;;;;;;4.90;3.63;;;;;;;10.25;100.00;-18304.03;4977990;28;20093;-81
2023/04/24 01:07:43;;;;;;;6.97;3.70;;;;;;;10.26;100.00;-18304.31;4979346;28;20057;-81
2023/04/24 01:10:09;;;;;;;5.63;4.25;;;;;;;10.31;100.00;-18305.69;4987759;28;20048;-82
2023/04/24 01:12:35;;;;;;;5.97;3.50;;;;;;;10.34;100.00;-18306.50;4979307;28;20066;-81
2023/04/24 01:15:00;;;;;;;5.10;3.22;;;;;;;10.34;100.00;-18306.38;4977620;28;20043;-81
2023/04/24 01:17:26;;;;;;;5.15;3.53;;;;;;;10.28;100.00;-18304.88;4983200;28;20042;-81
2023/04/24 01:19:56;;;;;;;5.10;3.42;;;;;;;10.34;100.00;-18306.38;4979485;28;20110;-81
2023/04/24 01:22:22;;;;;;;7.82;3.97;;;;;;;10.36;100.00;-18307.06;4978739;28;20061;-81
2023/04/24 01:24:48;;;;;;;5.15;3.50;;;;;;;10.32;100.00;-18305.97;4978473;28;20062;-81
2023/04/24 01:27:13;;;;;;;7.35;3.88;;;;;;;10.33;100.00;-18306.25;4978082;28;20523;-81
2023/04/24 01:29:39;;;;;;;6.93;5.45;;;;;;;10.39;100.00;-18307.75;4991953;28;20043;-81
2023/04/24 01:32:05;;;;;;;7.72;5.00;;;;;;;10.39;100.00;-18307.75;4981774;28;20042;-81
2023/04/24 01:34:31;;;;;;;10.02;5.93;;;;;;;10.24;100.00;-18303.75;4978453;28;20043;-81
2023/04/24 01:36:56;;;;;;;10.20;7.30;;;;;;;10.35;100.00;-18306.66;4981131;28;20050;-82
2023/04/24 01:39:25;;;;;;;10.80;7.90;;;;;;;10.52;100.00;-18311.31;4977467;28;20039;-83
2023/04/24 01:41:52;;;;;;;12.35;7.97;;;;;;;10.43;100.00;-18308.72;4980476;28;20042;-84
2023/04/24 01:44:17;;;;;;;9.80;7.78;;;;;;;10.38;100.00;-18307.63;4980951;28;20134;-83
2023/04/24 01:46:43;;;;;;;12.85;8.60;;;;;;;10.41;100.00;-18308.16;4981159;28;20521;-83
2023/04/24 01:49:08;;;;;;;12.57;8.98;;;;;;;10.33;100.00;-18306.09;4980162;28;20068;-83
2023/04/24 01:51:34;;;;;;;11.80;9.30;;;;;;;10.33;100.00;-18306.09;4975597;28;20123;-83
2023/04/24 01:53:59;;;;;;;14.10;10.32;;;;;;;10.35;100.00;-18306.78;4979097;28;20057;-84
2023/04/24 01:56:25;;;;;;;14.30;10.23;;;;;;;10.26;100.00;-18304.31;4978649;28;20097;-83
2023/04/24 01:58:53;;;;;;;16.15;11.30;;;;;;;10.32;100.00;-18305.81;4980067;28;20046;-83
2023/04/24 02:01:24;;;;;;;14.18;9.60;;;;;;;10.19;100.00;-18302.25;4978183;28;20031;-83
2023/04/24 02:03:49;;;;;;;14.70;9.85;;;;;;;10.27;100.00;-18304.44;4977113;28;20197;-83
2023/04/24 02:06:15;;;;;;;13.90;10.25;;;;;;;10.21;100.00;-18302.78;4980555;28;20087;-83
2023/04/24 02:08:40;;;;;;;15.10;9.65;;;;;;;10.16;100.00;-18301.69;4980047;28;20050;-84
2023/04/24 02:11:05;;;;;;;14.00;8.90;;;;;;;10.17;100.00;-18301.97;4989559;28;20073;-83
2023/04/24 02:13:31;;;;;;;20.27;10.18;;;;;;;10.19;100.00;-18302.25;4981786;28;20117;-83
2023/04/24 02:15:58;;;;;;;14.85;10.80;;;;;;;10.26;100.00;-18304.31;4978125;28;20051;-83
2023/04/24 02:18:23;;;;;;;16.08;8.82;;;;;;;10.12;100.00;-18300.47;4980447;28;20051;-83
2023/04/24 02:20:48;;;;;;;16.38;9.38;;;;;;;10.16;100.00;-18301.69;5002468;28;20090;-83
2023/04/24 02:23:14;;;;;;;17.80;9.82;;;;;;;10.25;100.00;-18304.03;4981658;28;20045;-84
2023/04/24 02:25:39;;;;;;;14.57;8.75;;;;;;;10.15;100.00;-18301.41;4980448;28;20058;-82
2023/04/24 02:28:05;;;;;;;17.15;9.77;;;;;;;10.15;100.00;-18301.41;4976529;28;20039;-83
2023/04/24 02:30:30;;;;;;;16.63;11.73;;;;;;;10.12;100.00;-18300.59;4996811;28;20053;-84
2023/04/24 02:32:55;;;;;;;17.58;11.15;;;;;;;10.10;100.00;-18300.06;4980620;28;20038;-83
2023/04/24 02:35:21;;;;;;;13.63;10.55;;;;;;;10.03;100.00;-18298.13;4995211;28;20065;-84
2023/04/24 02:37:46;;;;;;;19.15;11.82;;;;;;;9.95;100.00;-18295.94;4983550;28;20058;-83
2023/04/24 02:40:12;;;;;;;14.88;10.57;;;;;;;9.79;100.00;-18291.53;4981521;28;20098;-84
2023/04/24 02:42:37;;;;;;;22.45;12.73;;;;;;;9.89;100.00;-18294.41;4981668;28;20045;-84
2023/04/24 02:45:03;;;;;;;17.33;12.32;;;;;;;9.89;100.00;-18294.28;4976925;28;20638;-85
2023/04/24 02:47:28;;;;;;;18.92;11.25;;;;;;;9.82;100.00;-18292.50;4978659;28;20043;-83
2023/04/24 02:49:54;;;;;;;19.02;13.90;;;;;;;9.82;100.00;-18292.50;4980254;28;20259;-84
2023/04/24 02:52:20;;;;;;;20.13;13.32;;;;;;;9.82;100.00;-18292.34;4979389;28;20042;-83
2023/04/24 02:54:45;;;;;;;23.27;13.63;;;;;;;9.81;100.00;-18292.22;4984595;28;20047;-84
2023/04/24 02:57:10;;;;;;;21.52;14.60;;;;;;;9.76;100.00;-18290.69;4995737;28;20537;-82
2023/04/24 02:59:36;;;;;;;21.05;13.60;;;;;;;9.71;100.00;-18289.59;4977290;28;20047;-84
2023/04/24 03:02:01;;;;;;;21.38;14.48;;;;;;;9.77;100.00;-18291.13;4996467;28;20058;-83
2023/04/24 03:04:26;;;;;;;18.95;11.18;;;;;;;9.71;100.00;-18289.59;4992796;28;20067;-84
2023/04/24 03:06:54;;;;;;;25.20;14.63;;;;;;;9.75;100.00;-18290.44;4978428;28;20070;-83
2023/04/24 03:09:23;;;;;;;24.05;16.02;;;;;;;9.79;100.00;-18291.53;4977681;28;20047;-84
2023/04/24 03:11:49;;;;;;;21.17;13.30;;;;;;;9.75;100.00;-18290.44;4977420;28;20049;-84
2023/04/24 03:14:15;;;;;;;24.42;15.10;;;;;;;9.67;100.00;-18288.38;4977385;28;20047;-84
2023/04/24 03:16:40;;;;;;;23.52;15.48;;;;;;;9.69;100.00;-18288.91;4990338;28;20090;-84
2023/04/24 03:19:05;;;;;;;24.77;16.50;;;;;;;9.63;100.00;-18287.25;4991062;28;20518;-83
2023/04/24 03:21:31;;;;;;;28.02;15.50;;;;;;;9.64;100.00;-18287.69;4975477;28;20069;-84
2023/04/24 03:23:56;;;;;;;27.27;16.33;;;;;;;9.63;100.00;-18287.25;4977859;28;20077;-83
2023/04/24 03:26:21;;;;;;;27.45;17.77;;;;;;;9.60;100.00;-18286.56;4976522;28;20042;-83
2023/04/24 03:28:47;;;;;;;26.95;14.57;;;;;;;9.53;100.00;-18284.50;4975322;28;20043;-83
2023/04/24 03:31:12;;;;;;;28.38;17.88;;;;;;;9.50;100.00;-18283.81;4976671;28;20043;-84
2023/04/24 03:33:38;;;;;;;30.48;15.80;;;;;;;9.48;100.00;-18283.28;4973221;28;20046;-83
2023/04/24 03:36:04;;;;;;;29.52;19.65;;;;;;;9.53;100.00;-18284.50;4989445;28;20050;-84
2023/04/24 03:38:30;;;;;;;30.02;18.75;;;;;;;9.51;100.00;-18284.09;4988260;28;20035;-83
2023/04/24 03:40:55;;;;;;;31.38;19.42;;;;;;;9.55;100.00;-18285.19;4978521;28;20049;-83
2023/04/24 03:43:21;;;;;;;32.53;21.38;;;;;;;9.57;100.00;-18285.75;4976035;28;20113;-83
2023/04/24 03:45:46;;;;;;;30.50;17.95;;;;;;;9.57;100.00;-18285.75;4975958;28;20455;-84
2023/04/24 03:48:11;;;;;;;30.80;17.52;;;;;;;9.56;100.00;-18285.47;4973742;28;20045;-83
2023/04/24 03:50:37;;;;;;;27.30;17.70;;;;;;;9.63;100.00;-18287.25;4974832;28;20085;-84
2023/04/24 03:53:02;;;;;;;28.27;17.58;;;;;;;9.67;100.00;-18288.38;4976825;28;20049;-83
2023/04/24 03:55:27;;;;;;;27.45;18.58;;;;;;;9.70;100.00;-18289.19;4976415;28;20054;-84
2023/04/24 03:57:53;;;;;;;29.42;18.45;;;;;;;9.68;100.00;-18288.78;4976436;28;20054;-83
2023/04/24 04:00:18;;;;;;;28.73;19.73;;;;;;;9.68;100.00;-18288.63;4975754;28;20050;-84
2023/04/24 04:02:44;;;;;;;31.52;19.48;;;;;;;9.65;100.00;-18287.81;4980649;28;20145;-83
2023/04/24 04:05:09;;;;;;;31.77;18.02;;;;;;;9.69;100.00;-18289.06;4976305;28;20127;-84
2023/04/24 04:07:34;;;;;;;28.85;18.00;;;;;;;9.68;100.00;-18288.78;4979101;28;20530;-84
2023/04/24 04:10:00;;;;;;;27.55;16.27;;;;;;;9.69;100.00;-18288.91;4977888;28;20053;-83
2023/04/24 04:12:25;;;;;;;26.02;17.58;;;;;;;9.59;100.00;-18286.31;4977644;28;20054;-84
2023/04/24 04:14:50;;;;;;;29.55;20.02;;;;;;;9.61;100.00;-18286.72;4982978;28;20195;-84
2023/04/24 04:17:16;;;;;;;29.73;21.00;;;;;;;9.58;100.00;-18286.03;4975727;28;20041;-84
2023/04/24 04:19:41;;;;;;;28.70;18.65;;;;;;;9.63;100.00;-18287.41;4974622;28;20051;-84
2023/04/24 04:22:07;;;;;;;29.17;19.38;;;;;;;9.57;100.00;-18285.75;4977463;28;20042;-83
2023/04/24 04:24:33;;;;;;;29.30;18.13;;;;;;;9.57;100.00;-18285.75;4975517;28;20058;-85
2023/04/24 04:27:00;;;;;;;26.83;18.35;;;;;;;9.48;100.00;-18283.28;4971777;28;20487;-86
2023/04/24 04:29:25;;;;;;;26.42;18.35;;;;;;;9.52;100.00;-18284.38;4974439;28;20075;-84
2023/04/24 04:31:51;;;;;;;29.48;17.15;;;;;;;9.52;100.00;-18284.38;4973781;28;20050;-84
2023/04/24 04:34:16;;;;;;;30.83;17.55;;;;;;;9.62;100.00;-18287.00;4973544;28;20054;-82
2023/04/24 04:36:42;;;;;;;28.70;17.52;;;;;;;9.57;100.00;-18285.63;4972014;28;20050;-82
2023/04/24 04:39:08;;;;;;;27.67;18.45;;;;;;;9.59;100.00;-18286.16;4972921;28;20053;-82
2023/04/24 04:41:35;;;;;;;26.92;17.45;;;;;;;9.55;100.00;-18285.19;4972026;28;20410;-83
2023/04/24 04:44:00;;;;;;;33.80;20.77;;;;;;;9.69;100.00;-18288.91;4969593;28;20113;-82
2023/04/24 04:46:26;;;;;;;33.30;20.60;;;;;;;9.57;100.00;-18285.75;4972872;28;20042;-82
2023/04/24 04:48:53;;;;;;;29.45;19.55;;;;;;;9.71;100.00;-18289.59;4980700;28;20425;-83
2023/04/24 04:51:18;;;;;;;32.28;20.60;;;;;;;9.64;100.00;-18287.69;4968986;28;20053;-82
2023/04/24 04:53:43;;;;;;;31.48;20.30;;;;;;;9.63;100.00;-18287.25;4972288;28;20035;-85
2023/04/24 04:56:09;;;;;;;28.48;18.88;;;;;;;9.63;100.00;-18287.41;4975167;28;20077;-84
2023/04/24 04:58:34;;;;;;;34.42;18.63;;;;;;;9.66;100.00;-18288.09;4969542;28;20047;-84
2023/04/24 05:00:59;;;;;;;31.42;20.33;;;;;;;9.60;100.00;-18286.44;4973383;28;20039;-84
2023/04/24 05:03:25;;;;;;;30.77;19.27;;;;;;;9.64;100.00;-18287.69;4972842;28;20446;-83
2023/04/24 05:05:50;;;;;;;32.58;19.33;;;;;;;9.51;100.00;-18284.09;4973810;28;20050;-84
2023/04/24 05:08:16;;;;;;;35.10;22.00;;;;;;;9.56;100.00;-18285.47;4982140;28;20046;-83
2023/04/24 05:10:41;;;;;;;31.90;22.25;;;;;;;9.47;100.00;-18283.00;4970136;28;20102;-83
2023/04/24 05:13:06;;;;;;;27.92;18.33;;;;;;;9.43;100.00;-18282.03;4972936;28;20406;-85
2023/04/24 05:15:32;;;;;;;29.05;18.38;;;;;;;9.44;100.00;-18282.19;4954131;28;20077;-84
2023/04/24 05:17:57;;;;;;;29.65;19.85;;;;;;;9.33;100.00;-18279.16;4955368;28;20398;-83
2023/04/24 05:20:23;;;;;;;30.88;19.30;;;;;;;9.33;100.00;-18279.16;4970821;28;20148;-84
2023/04/24 05:22:48;;;;;;;36.10;24.63;;;;;;;9.35;100.00;-18279.69;4970389;28;20422;-84
2023/04/24 05:25:14;;;;;;;31.98;20.90;;;;;;;9.23;100.00;-18276.66;4969298;28;20066;-83
2023/04/24 05:27:40;;;;;;;33.75;20.95;;;;;;;9.29;100.00;-18278.06;4968190;28;20039;-84
2023/04/24 05:30:06;;;;;;;35.63;21.55;;;;;;;9.29;100.00;-18278.19;4979179;28;20047;-84
2023/04/24 05:32:31;;;;;;;33.45;20.85;;;;;;;9.34;100.00;-18279.44;4986913;28;20052;-83
2023/04/24 05:34:56;;;;;;;36.75;22.35;;;;;;;9.35;100.00;-18279.69;4974646;28;20122;-83
2023/04/24 05:37:22;;;;;;;36.05;23.60;;;;;;;9.36;100.00;-18279.97;4980726;28;20053;-82
2023/04/24 05:39:47;;;;;;;33.08;23.48;;;;;;;9.31;100.00;-18278.75;4977879;28;20050;-83
2023/04/24 05:42:12;;;;;;;32.95;21.75;;;;;;;9.31;100.00;-18278.59;4980110;28;20054;-84
2023/04/24 05:44:38;;;;;;;30.15;18.75;;;;;;;9.17;100.00;-18274.88;4970840;28;20169;-83
2023/04/24 05:47:03;;;;;;;29.73;18.20;;;;;;;9.19;100.00;-18275.56;4972322;28;20125;-83
2023/04/24 05:49:28;;;;;;;31.10;17.85;;;;;;;9.19;100.00;-18275.44;4977062;28;20039;-83
2023/04/24 05:51:54;;;;;;;35.55;24.42;;;;;;;9.29;100.00;-18278.06;4975128;28;20631;-83
2023/04/24 05:54:19;;;;;;;32.72;20.55;;;;;;;9.29;100.00;-18278.19;4988255;28;20618;-83
2023/04/24 05:56:44;;;;;;;31.00;21.05;;;;;;;9.25;100.00;-18277.22;4971334;28;20051;-84
2023/04/24 05:59:10;;;;;;;34.05;22.30;;;;;;;9.32;100.00;-18278.88;4974304;28;20079;-83
2023/04/24 06:01:35;;;;;;;33.50;23.13;;;;;;;9.38;100.00;-18280.53;4972900;28;20066;-84
2023/04/24 06:04:02;;;;;;;33.45;19.75;;;;;;;9.34;100.00;-18279.44;4979277;28;20518;-84
2023/04/24 06:06:28;;;;;;;36.78;22.20;;;;;;;9.41;100.00;-18281.34;4969680;28;20042;-84
2023/04/24 06:08:54;;;;;;;29.98;19.08;;;;;;;9.24;100.00;-18276.81;4970301;28;20050;-83
2023/04/24 06:11:19;;;;;;;30.38;21.25;;;;;;;9.30;100.00;-18278.31;4987947;28;20035;-83
2023/04/24 06:13:45;;;;;;;34.42;22.63;;;;;;;9.23;100.00;-18276.53;4972446;28;20045;-83
2023/04/24 06:16:10;;;;;;;38.28;19.38;;;;;;;9.22;100.00;-18276.41;4973369;28;20053;-83
2023/04/24 06:18:36;;;;;;;29.98;19.50;;;;;;;9.30;100.00;-18278.31;4972072;28;20639;-83
2023/04/24 06:21:01;;;;;;;30.67;17.85;;;;;;;9.31;100.00;-18278.59;4972863;28;20109;-84
2023/04/24 06:23:27;;;;;;;36.65;22.75;;;;;;;9.42;100.00;-18281.63;4972690;28;20046;-83
2023/04/24 06:25:52;;;;;;;29.05;18.38;;;;;;;9.37;100.00;-18280.38;4972367;28;20117;-84
2023/04/24 06:28:18;;;;;;;31.40;18.33;;;;;;;9.36;100.00;-18279.97;4971316;28;20058;-84
2023/04/24 06:30:43;;;;;;;28.83;17.38;;;;;;;9.39;100.00;-18280.81;4971675;28;20498;-84
2023/04/24 06:33:09;;;;;;;30.35;19.45;;;;;;;9.48;100.00;-18283.28;4971935;28;20542;-83
2023/04/24 06:35:35;;;;;;;25.90;16.88;;;;;;;9.55;100.00;-18285.19;4975171;28;20048;-84
2023/04/24 06:38:01;;;;;;;26.48;19.08;;;;;;;9.55;100.00;-18285.19;4978995;28;20039;-84
2023/04/24 06:40:26;;;;;;;24.92;17.77;;;;;;;9.51;100.00;-18283.97;4969533;28;20043;-84
2023/04/24 06:42:51;;;;;;;21.67;15.93;;;;;;;9.42;100.00;-18281.63;4972698;28;20050;-84
2023/04/24 06:45:17;;;;;;;25.58;15.93;;;;;;;9.42;100.00;-18281.75;4972927;28;20046;-84
2023/04/24 06:47:42;;;;;;;23.80;16.45;;;;;;;9.52;100.00;-18284.38;4976313;28;20458;-86
2023/04/24 06:50:08;;;;;;;22.15;15.98;;;;;;;9.53;100.00;-18284.66;4973344;28;20042;-84
2023/04/24 06:52:33;;;;;;;23.15;15.18;;;;;;;9.43;100.00;-18282.03;4962797;28;20045;-84
2023/04/24 06:55:03;;;;;;;20.38;13.23;;;;;;;9.42;100.00;-18281.63;4988704;28;20093;-84
2023/04/24 06:57:29;;;;;;;22.33;14.70;;;;;;;9.42;100.00;-18281.63;4979232;28;20050;-84
2023/04/24 06:59:55;;;;;;;19.35;13.20;;;;;;;9.44;100.00;-18282.19;4972369;28;20133;-85
2023/04/24 07:02:20;;;;;;;22.02;13.93;;;;;;;9.48;100.00;-18283.28;4988246;28;20089;-84
2023/04/24 07:04:46;;;;;;;24.63;14.30;;;;;;;9.41;100.00;-18281.34;4974451;28;20126;-85
2023/04/24 07:07:14;;;;;;;21.20;14.25;;;;;;;9.57;100.00;-18285.63;4982326;28;20410;-85
2023/04/24 07:09:40;;;;;;;19.27;14.32;;;;;;;9.52;100.00;-18284.38;4974276;28;20095;-85
2023/04/24 07:12:07;;;;;;;22.92;15.48;;;;;;;9.55;100.00;-18285.19;4973594;28;20034;-86
2023/04/24 07:14:33;;;;;;;22.13;15.30;;;;;;;9.55;100.00;-18285.06;4972926;28;20035;-84
2023/04/24 07:16:58;;;;;;;17.40;13.45;;;;;;;9.61;100.00;-18286.84;4981552;28;20046;-84
2023/04/24 07:19:23;;;;;;;18.30;12.63;;;;;;;9.66;100.00;-18288.22;4973251;28;20129;-84
2023/04/24 07:21:49;;;;;;;18.35;12.73;;;;;;;9.66;100.00;-18288.22;4985732;28;20047;-84
2023/04/24 07:24:14;;;;;;;19.38;13.55;;;;;;;9.74;100.00;-18290.16;4970562;28;20510;-85
2023/04/24 07:26:40;;;;;;;15.45;10.57;;;;;;;9.69;100.00;-18289.06;4972936;28;20067;-86
2023/04/24 07:29:06;;;;;;;15.63;9.32;;;;;;;9.50;100.00;-18283.81;4984720;28;20049;-85
2023/04/24 07:31:31;;;;;;;16.40;10.88;;;;;;;9.51;100.00;-18284.09;4968941;28;20035;-84
2023/04/24 07:33:58;;;;;;;14.07;10.40;;;;;;;9.42;100.00;-18281.75;4971343;28;20050;-84
2023/04/24 07:36:24;;;;;;;13.85;10.55;;;;;;;9.44;100.00;-18282.19;4977887;28;20043;-84
2023/04/24 07:38:49;;;;;;;13.35;10.02;;;;;;;9.46;100.00;-18282.72;4975979;28;20038;-83
2023/04/24 07:41:15;;;;;;;13.27;9.80;;;;;;;9.45;100.00;-18282.44;4974526;28;20058;-84
2023/04/24 07:43:41;;;;;;;12.27;9.60;;;;;;;9.40;100.00;-18281.06;4970409;28;20062;-84
2023/04/24 07:46:08;;;;;;;14.02;9.93;;;;;;;9.37;100.00;-18280.38;4971375;28;20039;-84
2023/04/24 07:48:33;;;;;;;10.40;7.72;;;;;;;9.34;100.00;-18279.44;4966364;28;20042;-84
2023/04/24 07:50:59;;;;;;;14.35;10.23;;;;;;;9.37;100.00;-18280.25;4975592;28;20509;-84
2023/04/24 07:53:24;;;;;;;13.52;10.90;;;;;;;9.39;100.00;-18280.81;4974105;28;20047;-84
2023/04/24 07:55:50;;;;;;;12.27;9.20;;;;;;;9.29;100.00;-18278.06;4972038;28;20073;-84
2023/04/24 07:58:15;;;;;;;11.98;7.97;;;;;;;9.22;100.00;-18276.41;4970671;28;20034;-85
2023/04/24 08:00:40;;;;;;;12.18;9.75;;;;;;;9.22;100.00;-18276.25;4974179;28;20569;-84
2023/04/24 08:03:06;;;;;;;13.90;9.27;;;;;;;9.21;100.00;-18276.00;4974659;28;20066;-84
2023/04/24 08:05:31;;;;;;;14.73;9.43;;;;;;;9.18;100.00;-18275.16;4973114;28;20127;-85
2023/04/24 08:07:56;;;;;;;16.67;11.32;;;;;;;9.20;100.00;-18275.84;4974528;28;20705;-84
2023/04/24 08:10:22;;;;;;;17.05;11.07;;;;;;;9.19;100.00;-18275.56;4974607;28;20525;-84
2023/04/24 08:12:48;;;;;;;12.95;9.27;;;;;;;9.13;100.00;-18273.78;4970419;28;20078;-85
2023/04/24 08:15:13;;;;;;;16.52;11.88;;;;;;;9.04;100.00;-18271.59;4986897;28;20034;-86
2023/04/24 08:17:39;;;;;;;14.82;11.25;;;;;;;9.06;100.00;-18271.84;4970178;28;20138;-84
2023/04/24 08:20:05;;;;;;;16.80;11.85;;;;;;;9.10;100.00;-18272.97;4976075;28;20109;-84
2023/04/24 08:22:31;;;;;;;15.20;9.88;;;;;;;9.03;100.00;-18271.16;4985228;28;20038;-84
2023/04/24 08:24:58;;;;;;;16.45;11.45;;;;;;;9.06;100.00;-18271.84;4974086;28;20050;-86
2023/04/24 08:27:23;;;;;;;18.15;13.20;;;;;;;9.12;100.00;-18273.50;4983313;28;20682;-85
2023/04/24 08:29:49;;;;;;;16.83;11.02;;;;;;;9.02;100.00;-18270.91;4973329;28;20034;-84
2023/04/24 08:32:15;;;;;;;12.82;8.90;;;;;;;8.95;100.00;-18268.97;4974571;28;20047;-84
2023/04/24 08:34:40;;;;;;;15.27;10.65;;;;;;;9.01;100.00;-18270.75;4972576;28;20521;-87
2023/04/24 08:37:06;;;;;;;14.25;11.18;;;;;;;8.99;100.00;-18270.06;4972025;28;20075;-83
2023/04/24 08:39:31;;;;;;;13.18;7.18;;;;;;;8.91;100.00;-18267.88;4972510;28;20047;-84
2023/04/24 08:42:04;;;;;;;12.18;8.10;;;;;;;8.94;100.00;-18268.69;4973338;28;20047;-86
2023/04/24 08:44:32;;;;;;;12.45;8.18;;;;;;;8.95;100.00;-18269.09;4972071;28;20414;-84
2023/04/24 08:46:57;;;;;;;12.73;8.02;;;;;;;9.02;100.00;-18271.03;4989661;28;20043;-84
2023/04/24 08:49:24;;;;;;;11.68;8.95;;;;;;;8.94;100.00;-18268.69;4972108;28;20563;-85
2023/04/24 08:51:50;;;;;;;13.32;8.55;;;;;;;8.87;100.00;-18266.78;4973004;28;20067;-84
2023/04/24 08:54:16;;;;;;;12.82;7.43;;;;;;;8.91;100.00;-18267.88;4991551;28;20055;-84
2023/04/24 08:56:44;;;;;;;13.82;8.55;;;;;;;8.93;100.00;-18268.41;4971858;28;20460;-84
2023/04/24 08:59:10;;;;;;;12.15;8.38;;;;;;;8.95;100.00;-18269.09;4972838;28;20046;-84
2023/04/24 09:01:37;;;;;;;15.23;10.23;;;;;;;8.98;100.00;-18269.81;4973953;28;20120;-84
2023/04/24 09:04:03;;;;;;;14.50;9.15;;;;;;;9.06;100.00;-18272.00;4971363;28;20058;-83
2023/04/24 09:06:31;;;;;;;17.33;11.90;;;;;;;9.04;100.00;-18271.44;4974344;28;20038;-84
2023/04/24 09:09:03;;;;;;;14.63;9.80;;;;;;;9.03;100.00;-18271.31;4975125;28;20449;-84
2023/04/24 09:11:30;;;;;;;11.13;7.25;;;;;;;9.02;100.00;-18270.91;4975111;28;20047;-86
2023/04/24 09:13:56;;;;;;;9.80;6.55;;;;;;;8.96;100.00;-18269.25;4976375;28;20672;-85
2023/04/24 09:16:24;;;;;;;8.23;4.90;;;;;;;8.92;100.00;-18268.16;4976660;28;20043;-85
2023/04/24 09:18:49;;;;;;;9.20;6.95;;;;;;;8.95;100.00;-18269.09;4975915;28;20047;-84
2023/04/24 09:21:15;;;;;;;9.27;5.47;;;;;;;8.96;100.00;-18269.38;4977644;28;20053;-83
2023/04/24 09:23:40;;;;;;;8.63;6.93;;;;;;;9.06;100.00;-18272.00;4991288;28;20051;-84
2023/04/24 09:26:06;;;;;;;10.02;6.72;;;;;;;9.10;100.00;-18272.97;4979253;28;20482;-83
2023/04/24 09:28:31;;;;;;;9.48;5.75;;;;;;;9.07;100.00;-18272.28;4975650;28;20043;-84
2023/04/24 09:31:06;;;;;;;8.05;6.25;;;;;;;9.06;100.00;-18272.00;4976786;28;20058;-84
2023/04/24 09:33:31;;;;;;;11.45;8.73;;;;;;;8.94;100.00;-18268.69;4980827;28;20052;-84
2023/04/24 09:35:57;;;;;;;11.75;8.38;;;;;;;8.87;100.00;-18266.78;4979865;28;20117;-84
2023/04/24 09:38:36;;;;;;;16.42;10.50;;;;;;;8.86;100.00;-18266.50;4982856;28;20042;-84
2023/04/24 09:41:04;;;;;;;13.65;10.60;;;;;;;8.90;100.00;-18267.72;4992130;28;20050;-83
2023/04/24 09:43:30;;;;;;;17.77;11.90;;;;;;;8.86;100.00;-18266.50;4974632;28;20380;-84
2023/04/24 09:45:58;;;;;;;17.75;12.75;;;;;;;8.89;100.00;-18267.31;4978790;28;20069;-84
2023/04/24 09:48:31;;;;;;;21.08;13.05;;;;;;;8.91;100.00;-18268.00;4978530;28;20042;-83
2023/04/24 09:50:57;;;;;;;16.13;11.70;;;;;;;8.89;100.00;-18267.31;4984283;28;20046;-84
2023/04/24 09:53:26;;;;;;;15.13;11.82;;;;;;;8.89;100.00;-18267.31;4979821;28;20088;-83
2023/04/24 09:55:52;;;;;;;20.10;12.88;;;;;;;8.84;100.00;-18265.94;4979986;28;20051;-84
2023/04/24 09:58:24;;;;;;;15.02;10.45;;;;;;;8.87;100.00;-18266.91;4981819;28;20126;-84
2023/04/24 10:00:50;;;;;;;17.25;12.82;;;;;;;8.87;100.00;-18266.91;4985764;28;20292;-84
2023/04/24 10:03:17;;;;;;;16.45;9.73;;;;;;;8.81;100.00;-18265.41;4975185;28;20632;-86
2023/04/24 10:05:46;;;;;;;19.02;11.48;;;;;;;8.79;100.00;-18264.72;4972935;28;20089;-84
2023/04/24 10:08:13;;;;;;;19.45;12.18;;;;;;;8.84;100.00;-18265.94;4973772;28;20123;-84
2023/04/24 10:10:40;;;;;;;17.13;12.05;;;;;;;8.82;100.00;-18265.53;4974505;28;20039;-83
2023/04/24 10:13:07;;;;;;;19.13;13.07;;;;;;;8.86;100.00;-18266.50;4977811;28;20429;-84
2023/04/24 10:15:33;;;;;;;17.38;11.52;;;;;;;8.77;100.00;-18264.16;4971083;28;20035;-84
2023/04/24 10:17:59;;;;;;;21.80;13.30;;;;;;;8.78;100.00;-18264.44;4974944;28;20043;-84
2023/04/24 10:20:28;;;;;;;19.48;12.98;;;;;;;8.78;100.00;-18264.56;4976095;28;20283;-84
2023/04/24 10:22:54;;;;;;;22.10;14.15;;;;;;;8.87;100.00;-18266.78;4971412;28;20059;-84
2023/04/24 10:25:21;;;;;;;18.00;13.02;;;;;;;8.80;100.00;-18265.13;4976633;28;20490;-84
2023/04/24 10:27:49;;;;;;;20.08;13.57;;;;;;;8.82;100.00;-18265.66;4970315;28;20613;-84
2023/04/24 10:30:15;;;;;;;20.95;13.43;;;;;;;8.88;100.00;-18267.03;4973870;28;20046;-85
2023/04/24 10:32:41;;;;;;;18.33;13.27;;;;;;;8.91;100.00;-18268.00;4991364;28;20042;-85
2023/04/24 10:35:07;;;;;;;18.25;10.55;;;;;;;8.86;100.00;-18266.50;4974324;28;20058;-83
2023/04/24 10:37:44;;;;;;;17.98;13.20;;;;;;;8.85;100.00;-18266.22;4968749;28;20076;-84
2023/04/24 10:40:10;;;;;;;13.35;9.95;;;;;;;8.78;100.00;-18264.56;4974577;28;20047;-84
2023/04/24 10:42:41;;;;;;;13.13;7.40;;;;;;;8.76;100.00;-18264.00;4972516;28;20402;-84
2023/04/24 10:45:15;;;;;;;9.60;6.38;;;;;;;8.79;100.00;-18264.72;4981651;28;20108;-83
2023/04/24 10:47:41;;;;;;;8.57;5.40;;;;;;;8.70;100.00;-18262.22;4973847;28;20043;-84
2023/04/24 10:50:12;;;;;;;8.95;4.90;;;;;;;8.64;100.00;-18260.72;4975345;28;20048;-83
2023/04/24 10:52:45;;;;;;;7.13;5.57;;;;;;;8.61;100.00;-18259.88;4974327;28;20042;-84
2023/04/24 10:55:12;;;;;;;10.07;5.18;;;;;;;8.52;100.00;-18257.41;4989480;28;20070;-83
2023/04/24 10:57:38;;;;;;;9.25;5.18;;;;;;;8.48;100.00;-18256.44;4977305;28;20049;-82
2023/04/24 11:00:20;;;;;;;12.70;7.20;;;;;;;8.49;100.00;-18256.72;4981493;28;20050;-82
2023/04/24 11:02:52;;;;;;;17.10;7.32;;;;;;;8.41;100.00;-18254.38;4973462;28;20053;-83
2023/04/24 11:05:19;;;;;;;14.55;7.75;;;;;;;8.43;100.00;-18254.94;4972441;28;20706;-82
2023/04/24 11:08:09;;;;;;;13.70;8.05;;;;;;;8.40;100.00;-18254.09;4975349;28;20415;-83